sensor_id;sensor_type;location;lat;lon;timestamp;P1;durP1;ratioP1;P2;durP2;ratioP2
44110;SDS011;29774;52.664;5.074;2023-06-22T00:00:51;22.90;;;18.02;;
44110;SDS011;29774;52.664;5.074;2023-06-22T00:03:18;22.73;;;18.38;;
44110;SDS011;29774;52.664;5.074;2023-06-22T00:05:45;23.80;;;18.67;;
44110;SDS011;29774;52.664;5.074;2023-06-22T00:08:11;23.15;;;18.80;;
44110;SDS011;29774;52.664;5.074;2023-06-22T00:10:37;23.73;;;18.67;;
44110;SDS011;29774;52.664;5.074;2023-06-22T00:13:02;22.23;;;17.65;;
44110;SDS011;29774;52.664;5.074;2023-06-22T00:15:28;23.80;;;19.02;;
44110;SDS011;29774;52.664;5.074;2023-06-22T00:17:54;25.52;;;19.33;;
44110;SDS011;29774;52.664;5.074;2023-06-22T00:20:19;23.08;;;18.63;;
44110;SDS011;29774;52.664;5.074;2023-06-22T00:22:45;26.80;;;19.02;;
44110;SDS011;29774;52.664;5.074;2023-06-22T00:25:11;25.08;;;18.25;;
44110;SDS011;29774;52.664;5.074;2023-06-22T00:27:36;24.58;;;19.50;;
44110;SDS011;29774;52.664;5.074;2023-06-22T00:30:02;21.20;;;17.55;;
44110;SDS011;29774;52.664;5.074;2023-06-22T00:32:28;23.40;;;18.23;;
44110;SDS011;29774;52.664;5.074;2023-06-22T00:34:54;23.88;;;19.38;;
44110;SDS011;29774;52.664;5.074;2023-06-22T00:37:20;23.65;;;18.42;;
44110;SDS011;29774;52.664;5.074;2023-06-22T00:39:50;28.23;;;20.05;;
44110;SDS011;29774;52.664;5.074;2023-06-22T00:42:16;26.25;;;19.73;;
44110;SDS011;29774;52.664;5.074;2023-06-22T00:44:42;25.45;;;19.98;;
44110;SDS011;29774;52.664;5.074;2023-06-22T00:47:08;24.23;;;19.90;;
44110;SDS011;29774;52.664;5.074;2023-06-22T00:49:34;27.13;;;20.85;;
44110;SDS011;29774;52.664;5.074;2023-06-22T00:52:00;26.95;;;21.73;;
44110;SDS011;29774;52.664;5.074;2023-06-22T00:54:25;26.60;;;20.77;;
44110;SDS011;29774;52.664;5.074;2023-06-22T00:56:53;24.60;;;19.85;;
44110;SDS011;29774;52.664;5.074;2023-06-22T00:59:21;28.50;;;21.15;;
44110;SDS011;29774;52.664;5.074;2023-06-22T01:01:48;25.08;;;20.67;;
44110;SDS011;29774;52.664;5.074;2023-06-22T01:04:13;27.08;;;21.17;;
44110;SDS011;29774;52.664;5.074;2023-06-22T01:06:50;28.13;;;21.30;;
44110;SDS011;29774;52.664;5.074;2023-06-22T01:09:32;25.75;;;20.73;;
44110;SDS011;29774;52.664;5.074;2023-06-22T01:12:04;25.00;;;20.88;;
44110;SDS011;29774;52.664;5.074;2023-06-22T01:14:35;26.23;;;20.30;;
44110;SDS011;29774;52.664;5.074;2023-06-22T01:17:07;27.88;;;21.15;;
44110;SDS011;29774;52.664;5.074;2023-06-22T01:22:20;25.90;;;21.35;;
44110;SDS011;29774;52.664;5.074;2023-06-22T01:24:51;28.15;;;22.55;;
44110;SDS011;29774;52.664;5.074;2023-06-22T01:30:31;26.75;;;21.40;;
44110;SDS011;29774;52.664;5.074;2023-06-22T01:32:59;27.95;;;22.10;;
44110;SDS011;29774;52.664;5.074;2023-06-22T01:35:26;25.77;;;21.10;;
44110;SDS011;29774;52.664;5.074;2023-06-22T01:37:53;25.00;;;20.35;;
44110;SDS011;29774;52.664;5.074;2023-06-22T01:40:20;23.48;;;19.88;;
44110;SDS011;29774;52.664;5.074;2023-06-22T01:42:46;22.80;;;18.58;;
44110;SDS011;29774;52.664;5.074;2023-06-22T01:45:13;25.33;;;19.17;;
44110;SDS011;29774;52.664;5.074;2023-06-22T01:47:39;25.15;;;19.77;;
44110;SDS011;29774;52.664;5.074;2023-06-22T01:50:06;25.40;;;19.17;;
44110;SDS011;29774;52.664;5.074;2023-06-22T01:52:33;24.00;;;19.08;;
44110;SDS011;29774;52.664;5.074;2023-06-22T01:54:59;22.50;;;18.95;;
44110;SDS011;29774;52.664;5.074;2023-06-22T01:57:25;24.77;;;18.90;;
44110;SDS011;29774;52.664;5.074;2023-06-22T02:02:32;22.85;;;17.95;;
44110;SDS011;29774;52.664;5.074;2023-06-22T02:05:05;22.40;;;18.25;;
44110;SDS011;29774;52.664;5.074;2023-06-22T02:07:36;23.17;;;17.75;;
44110;SDS011;29774;52.664;5.074;2023-06-22T02:10:32;21.52;;;17.55;;
44110;SDS011;29774;52.664;5.074;2023-06-22T02:13:00;22.85;;;17.98;;
44110;SDS011;29774;52.664;5.074;2023-06-22T02:15:27;23.60;;;18.38;;
44110;SDS011;29774;52.664;5.074;2023-06-22T02:17:53;21.75;;;17.30;;
44110;SDS011;29774;52.664;5.074;2023-06-22T02:20:19;23.27;;;18.27;;
44110;SDS011;29774;52.664;5.074;2023-06-22T02:22:45;23.23;;;17.10;;
44110;SDS011;29774;52.664;5.074;2023-06-22T02:25:11;24.95;;;19.25;;
44110;SDS011;29774;52.664;5.074;2023-06-22T02:27:36;25.98;;;18.65;;
44110;SDS011;29774;52.664;5.074;2023-06-22T02:30:05;23.67;;;18.58;;
44110;SDS011;29774;52.664;5.074;2023-06-22T02:32:33;23.70;;;18.95;;
44110;SDS011;29774;52.664;5.074;2023-06-22T02:35:00;24.13;;;19.88;;
44110;SDS011;29774;52.664;5.074;2023-06-22T02:37:29;26.45;;;18.95;;
44110;SDS011;29774;52.664;5.074;2023-06-22T02:39:55;24.17;;;18.20;;
44110;SDS011;29774;52.664;5.074;2023-06-22T02:42:21;20.27;;;17.38;;
44110;SDS011;29774;52.664;5.074;2023-06-22T02:44:46;23.25;;;18.88;;
44110;SDS011;29774;52.664;5.074;2023-06-22T02:47:12;23.33;;;18.02;;
44110;SDS011;29774;52.664;5.074;2023-06-22T02:49:38;26.10;;;18.52;;
44110;SDS011;29774;52.664;5.074;2023-06-22T02:52:04;21.70;;;17.73;;
44110;SDS011;29774;52.664;5.074;2023-06-22T02:54:30;23.55;;;18.38;;
44110;SDS011;29774;52.664;5.074;2023-06-22T02:56:55;22.48;;;18.35;;
44110;SDS011;29774;52.664;5.074;2023-06-22T02:59:21;23.00;;;17.85;;
44110;SDS011;29774;52.664;5.074;2023-06-22T03:01:49;24.80;;;18.13;;
44110;SDS011;29774;52.664;5.074;2023-06-22T03:04:15;20.73;;;17.42;;
44110;SDS011;29774;52.664;5.074;2023-06-22T03:06:40;23.27;;;16.58;;
44110;SDS011;29774;52.664;5.074;2023-06-22T03:09:06;22.30;;;17.10;;
44110;SDS011;29774;52.664;5.074;2023-06-22T03:11:32;21.92;;;18.08;;
44110;SDS011;29774;52.664;5.074;2023-06-22T03:13:59;21.77;;;17.02;;
44110;SDS011;29774;52.664;5.074;2023-06-22T03:16:25;21.30;;;17.17;;
44110;SDS011;29774;52.664;5.074;2023-06-22T03:18:51;20.08;;;16.70;;
44110;SDS011;29774;52.664;5.074;2023-06-22T03:21:21;26.48;;;18.25;;
44110;SDS011;29774;52.664;5.074;2023-06-22T03:23:47;22.15;;;17.05;;
44110;SDS011;29774;52.664;5.074;2023-06-22T03:26:16;23.50;;;18.38;;
44110;SDS011;29774;52.664;5.074;2023-06-22T03:28:42;22.33;;;17.52;;
44110;SDS011;29774;52.664;5.074;2023-06-22T03:31:08;20.27;;;15.82;;
44110;SDS011;29774;52.664;5.074;2023-06-22T03:36:44;21.85;;;17.58;;
44110;SDS011;29774;52.664;5.074;2023-06-22T03:39:10;22.42;;;16.48;;
44110;SDS011;29774;52.664;5.074;2023-06-22T03:41:35;21.55;;;16.70;;
44110;SDS011;29774;52.664;5.074;2023-06-22T03:44:01;21.13;;;16.55;;
44110;SDS011;29774;52.664;5.074;2023-06-22T03:46:27;21.95;;;17.08;;
44110;SDS011;29774;52.664;5.074;2023-06-22T03:48:52;17.30;;;15.13;;
44110;SDS011;29774;52.664;5.074;2023-06-22T03:51:18;19.33;;;16.25;;
44110;SDS011;29774;52.664;5.074;2023-06-22T03:53:44;20.80;;;15.48;;
44110;SDS011;29774;52.664;5.074;2023-06-22T03:56:09;20.70;;;16.48;;
44110;SDS011;29774;52.664;5.074;2023-06-22T03:58:35;20.05;;;16.33;;
44110;SDS011;29774;52.664;5.074;2023-06-22T04:01:01;22.45;;;16.77;;
44110;SDS011;29774;52.664;5.074;2023-06-22T04:03:27;23.27;;;16.30;;
44110;SDS011;29774;52.664;5.074;2023-06-22T04:05:53;21.98;;;17.13;;
44110;SDS011;29774;52.664;5.074;2023-06-22T04:08:18;20.83;;;16.23;;
44110;SDS011;29774;52.664;5.074;2023-06-22T04:10:44;21.67;;;15.70;;
44110;SDS011;29774;52.664;5.074;2023-06-22T04:13:10;20.67;;;16.48;;
44110;SDS011;29774;52.664;5.074;2023-06-22T04:15:35;24.85;;;16.08;;
44110;SDS011;29774;52.664;5.074;2023-06-22T04:18:02;21.98;;;15.45;;
44110;SDS011;29774;52.664;5.074;2023-06-22T04:20:28;20.83;;;15.93;;
44110;SDS011;29774;52.664;5.074;2023-06-22T04:22:54;20.27;;;15.48;;
44110;SDS011;29774;52.664;5.074;2023-06-22T04:25:20;21.65;;;14.95;;
44110;SDS011;29774;52.664;5.074;2023-06-22T04:27:47;19.67;;;14.90;;
44110;SDS011;29774;52.664;5.074;2023-06-22T04:30:13;18.02;;;14.30;;
44110;SDS011;29774;52.664;5.074;2023-06-22T04:32:43;19.50;;;14.48;;
44110;SDS011;29774;52.664;5.074;2023-06-22T04:35:10;16.42;;;14.38;;
44110;SDS011;29774;52.664;5.074;2023-06-22T04:37:36;17.73;;;15.20;;
44110;SDS011;29774;52.664;5.074;2023-06-22T04:40:04;17.50;;;15.40;;
44110;SDS011;29774;52.664;5.074;2023-06-22T04:42:34;19.38;;;15.07;;
44110;SDS011;29774;52.664;5.074;2023-06-22T04:45:01;19.27;;;14.95;;
44110;SDS011;29774;52.664;5.074;2023-06-22T04:47:28;18.98;;;15.10;;
44110;SDS011;29774;52.664;5.074;2023-06-22T04:49:55;19.20;;;15.77;;
44110;SDS011;29774;52.664;5.074;2023-06-22T04:52:21;18.30;;;15.27;;
44110;SDS011;29774;52.664;5.074;2023-06-22T04:54:47;18.73;;;13.82;;
44110;SDS011;29774;52.664;5.074;2023-06-22T04:57:13;18.83;;;15.43;;
44110;SDS011;29774;52.664;5.074;2023-06-22T04:59:39;23.63;;;17.55;;
44110;SDS011;29774;52.664;5.074;2023-06-22T05:02:06;19.33;;;15.73;;
44110;SDS011;29774;52.664;5.074;2023-06-22T05:04:32;19.67;;;15.85;;
44110;SDS011;29774;52.664;5.074;2023-06-22T05:07:01;22.45;;;18.10;;
44110;SDS011;29774;52.664;5.074;2023-06-22T05:09:27;20.17;;;17.85;;
44110;SDS011;29774;52.664;5.074;2023-06-22T05:11:54;26.15;;;17.35;;
44110;SDS011;29774;52.664;5.074;2023-06-22T05:14:21;19.42;;;14.55;;
44110;SDS011;29774;52.664;5.074;2023-06-22T05:16:48;23.77;;;18.50;;
44110;SDS011;29774;52.664;5.074;2023-06-22T05:19:14;19.85;;;16.33;;
44110;SDS011;29774;52.664;5.074;2023-06-22T05:21:39;22.35;;;18.38;;
44110;SDS011;29774;52.664;5.074;2023-06-22T05:24:05;25.77;;;18.52;;
44110;SDS011;29774;52.664;5.074;2023-06-22T05:26:33;22.63;;;16.75;;
44110;SDS011;29774;52.664;5.074;2023-06-22T05:28:59;24.48;;;18.00;;
44110;SDS011;29774;52.664;5.074;2023-06-22T05:31:26;27.25;;;20.50;;
44110;SDS011;29774;52.664;5.074;2023-06-22T05:33:53;20.92;;;17.02;;
44110;SDS011;29774;52.664;5.074;2023-06-22T05:36:21;27.05;;;20.38;;
44110;SDS011;29774;52.664;5.074;2023-06-22T05:38:50;26.92;;;20.63;;
44110;SDS011;29774;52.664;5.074;2023-06-22T05:41:16;25.50;;;19.90;;
44110;SDS011;29774;52.664;5.074;2023-06-22T05:43:42;27.60;;;20.05;;
44110;SDS011;29774;52.664;5.074;2023-06-22T05:46:07;24.95;;;19.40;;
44110;SDS011;29774;52.664;5.074;2023-06-22T05:48:33;27.90;;;19.73;;
44110;SDS011;29774;52.664;5.074;2023-06-22T05:50:59;25.90;;;20.88;;
44110;SDS011;29774;52.664;5.074;2023-06-22T05:53:24;24.92;;;17.75;;
44110;SDS011;29774;52.664;5.074;2023-06-22T05:55:50;23.77;;;19.45;;
44110;SDS011;29774;52.664;5.074;2023-06-22T05:58:16;26.95;;;18.48;;
44110;SDS011;29774;52.664;5.074;2023-06-22T06:00:41;25.20;;;18.80;;
44110;SDS011;29774;52.664;5.074;2023-06-22T06:03:08;26.23;;;19.40;;
44110;SDS011;29774;52.664;5.074;2023-06-22T06:05:35;24.33;;;19.30;;
44110;SDS011;29774;52.664;5.074;2023-06-22T06:08:02;24.23;;;18.25;;
44110;SDS011;29774;52.664;5.074;2023-06-22T06:10:33;27.30;;;18.83;;
44110;SDS011;29774;52.664;5.074;2023-06-22T06:12:59;19.15;;;16.95;;
44110;SDS011;29774;52.664;5.074;2023-06-22T06:15:29;17.30;;;14.93;;
44110;SDS011;29774;52.664;5.074;2023-06-22T06:17:58;23.17;;;18.60;;
44110;SDS011;29774;52.664;5.074;2023-06-22T06:20:24;24.73;;;18.50;;
44110;SDS011;29774;52.664;5.074;2023-06-22T06:22:52;19.85;;;15.63;;
44110;SDS011;29774;52.664;5.074;2023-06-22T06:25:18;19.35;;;17.02;;
44110;SDS011;29774;52.664;5.074;2023-06-22T06:27:46;18.27;;;16.38;;
44110;SDS011;29774;52.664;5.074;2023-06-22T06:30:13;26.40;;;16.40;;
44110;SDS011;29774;52.664;5.074;2023-06-22T06:32:41;18.73;;;15.63;;
44110;SDS011;29774;52.664;5.074;2023-06-22T06:35:08;17.25;;;13.27;;
44110;SDS011;29774;52.664;5.074;2023-06-22T06:37:41;16.10;;;13.00;;
44110;SDS011;29774;52.664;5.074;2023-06-22T06:40:09;15.63;;;12.30;;
44110;SDS011;29774;52.664;5.074;2023-06-22T06:42:44;19.92;;;15.40;;
44110;SDS011;29774;52.664;5.074;2023-06-22T06:45:11;19.58;;;15.10;;
44110;SDS011;29774;52.664;5.074;2023-06-22T06:47:38;18.35;;;12.88;;
44110;SDS011;29774;52.664;5.074;2023-06-22T06:50:05;17.35;;;12.38;;
44110;SDS011;29774;52.664;5.074;2023-06-22T06:52:31;16.42;;;13.25;;
44110;SDS011;29774;52.664;5.074;2023-06-22T06:54:57;16.88;;;13.55;;
44110;SDS011;29774;52.664;5.074;2023-06-22T06:57:23;17.95;;;13.85;;
44110;SDS011;29774;52.664;5.074;2023-06-22T06:59:53;18.08;;;15.40;;
44110;SDS011;29774;52.664;5.074;2023-06-22T07:02:21;20.77;;;14.07;;
44110;SDS011;29774;52.664;5.074;2023-06-22T07:04:47;18.67;;;13.40;;
44110;SDS011;29774;52.664;5.074;2023-06-22T07:07:13;16.00;;;13.57;;
44110;SDS011;29774;52.664;5.074;2023-06-22T07:09:40;14.52;;;12.52;;
44110;SDS011;29774;52.664;5.074;2023-06-22T07:12:06;19.27;;;13.45;;
44110;SDS011;29774;52.664;5.074;2023-06-22T07:14:32;19.92;;;14.77;;
44110;SDS011;29774;52.664;5.074;2023-06-22T07:16:58;20.10;;;13.48;;
44110;SDS011;29774;52.664;5.074;2023-06-22T07:19:27;17.63;;;14.60;;
44110;SDS011;29774;52.664;5.074;2023-06-22T07:21:53;16.95;;;13.38;;
44110;SDS011;29774;52.664;5.074;2023-06-22T07:24:20;18.45;;;15.00;;
44110;SDS011;29774;52.664;5.074;2023-06-22T07:26:50;15.95;;;13.75;;
44110;SDS011;29774;52.664;5.074;2023-06-22T07:29:22;13.60;;;10.70;;
44110;SDS011;29774;52.664;5.074;2023-06-22T07:31:48;17.55;;;13.43;;
44110;SDS011;29774;52.664;5.074;2023-06-22T07:34:16;16.73;;;13.05;;
44110;SDS011;29774;52.664;5.074;2023-06-22T07:36:43;14.00;;;12.10;;
44110;SDS011;29774;52.664;5.074;2023-06-22T07:39:10;16.02;;;12.55;;
44110;SDS011;29774;52.664;5.074;2023-06-22T07:41:37;12.85;;;10.73;;
44110;SDS011;29774;52.664;5.074;2023-06-22T07:44:03;17.67;;;13.68;;
44110;SDS011;29774;52.664;5.074;2023-06-22T07:46:30;16.90;;;12.68;;
44110;SDS011;29774;52.664;5.074;2023-06-22T07:48:56;13.48;;;10.20;;
44110;SDS011;29774;52.664;5.074;2023-06-22T07:51:22;19.48;;;12.70;;
44110;SDS011;29774;52.664;5.074;2023-06-22T07:53:48;16.63;;;12.45;;
44110;SDS011;29774;52.664;5.074;2023-06-22T07:56:14;14.13;;;12.50;;
44110;SDS011;29774;52.664;5.074;2023-06-22T07:58:44;14.05;;;11.10;;
44110;SDS011;29774;52.664;5.074;2023-06-22T08:01:11;12.50;;;10.65;;
44110;SDS011;29774;52.664;5.074;2023-06-22T08:03:36;13.15;;;10.38;;
44110;SDS011;29774;52.664;5.074;2023-06-22T08:06:02;10.02;;;8.65;;
44110;SDS011;29774;52.664;5.074;2023-06-22T08:08:29;10.10;;;7.88;;
44110;SDS011;29774;52.664;5.074;2023-06-22T08:10:54;15.20;;;10.20;;
44110;SDS011;29774;52.664;5.074;2023-06-22T08:13:20;14.52;;;9.30;;
44110;SDS011;29774;52.664;5.074;2023-06-22T08:15:46;11.63;;;8.82;;
44110;SDS011;29774;52.664;5.074;2023-06-22T08:18:11;13.70;;;11.20;;
44110;SDS011;29774;52.664;5.074;2023-06-22T08:20:37;9.65;;;8.35;;
44110;SDS011;29774;52.664;5.074;2023-06-22T08:23:04;12.52;;;10.07;;
44110;SDS011;29774;52.664;5.074;2023-06-22T08:25:32;12.13;;;8.45;;
44110;SDS011;29774;52.664;5.074;2023-06-22T08:27:59;13.60;;;10.60;;
44110;SDS011;29774;52.664;5.074;2023-06-22T08:30:25;8.57;;;6.60;;
44110;SDS011;29774;52.664;5.074;2023-06-22T08:32:51;12.20;;;8.75;;
44110;SDS011;29774;52.664;5.074;2023-06-22T08:35:16;11.13;;;8.98;;
44110;SDS011;29774;52.664;5.074;2023-06-22T08:37:42;10.55;;;8.32;;
44110;SDS011;29774;52.664;5.074;2023-06-22T08:40:08;10.07;;;7.95;;
44110;SDS011;29774;52.664;5.074;2023-06-22T08:42:39;12.15;;;9.38;;
44110;SDS011;29774;52.664;5.074;2023-06-22T08:45:05;12.38;;;10.07;;
44110;SDS011;29774;52.664;5.074;2023-06-22T08:47:32;14.18;;;12.52;;
44110;SDS011;29774;52.664;5.074;2023-06-22T08:49:57;15.23;;;12.02;;
44110;SDS011;29774;52.664;5.074;2023-06-22T08:52:23;15.27;;;11.52;;
44110;SDS011;29774;52.664;5.074;2023-06-22T08:54:49;11.57;;;9.95;;
44110;SDS011;29774;52.664;5.074;2023-06-22T08:57:15;13.93;;;10.25;;
44110;SDS011;29774;52.664;5.074;2023-06-22T08:59:41;15.00;;;11.65;;
44110;SDS011;29774;52.664;5.074;2023-06-22T09:02:07;14.27;;;9.85;;
44110;SDS011;29774;52.664;5.074;2023-06-22T09:04:33;13.93;;;12.15;;
44110;SDS011;29774;52.664;5.074;2023-06-22T09:07:02;9.48;;;8.40;;
44110;SDS011;29774;52.664;5.074;2023-06-22T09:09:28;12.90;;;10.13;;
44110;SDS011;29774;52.664;5.074;2023-06-22T09:11:54;14.82;;;12.13;;
44110;SDS011;29774;52.664;5.074;2023-06-22T09:14:19;6.68;;;6.00;;
44110;SDS011;29774;52.664;5.074;2023-06-22T09:16:45;11.10;;;8.35;;
44110;SDS011;29774;52.664;5.074;2023-06-22T09:19:11;15.52;;;11.35;;
44110;SDS011;29774;52.664;5.074;2023-06-22T09:21:36;12.18;;;10.57;;
44110;SDS011;29774;52.664;5.074;2023-06-22T09:24:02;10.63;;;9.10;;
44110;SDS011;29774;52.664;5.074;2023-06-22T09:26:28;13.77;;;11.60;;
44110;SDS011;29774;52.664;5.074;2023-06-22T09:28:54;15.30;;;13.18;;
44110;SDS011;29774;52.664;5.074;2023-06-22T09:31:20;9.65;;;8.60;;
44110;SDS011;29774;52.664;5.074;2023-06-22T09:33:52;12.95;;;10.85;;
44110;SDS011;29774;52.664;5.074;2023-06-22T09:36:23;15.30;;;10.13;;
44110;SDS011;29774;52.664;5.074;2023-06-22T09:38:48;8.88;;;7.43;;
44110;SDS011;29774;52.664;5.074;2023-06-22T09:41:21;9.40;;;8.00;;
44110;SDS011;29774;52.664;5.074;2023-06-22T09:43:47;13.70;;;10.82;;
44110;SDS011;29774;52.664;5.074;2023-06-22T09:46:15;12.43;;;10.63;;
44110;SDS011;29774;52.664;5.074;2023-06-22T09:48:41;6.82;;;5.78;;
44110;SDS011;29774;52.664;5.074;2023-06-22T09:51:07;13.07;;;9.38;;
44110;SDS011;29774;52.664;5.074;2023-06-22T09:53:33;14.55;;;11.77;;
44110;SDS011;29774;52.664;5.074;2023-06-22T09:55:59;10.27;;;9.25;;
44110;SDS011;29774;52.664;5.074;2023-06-22T09:58:31;10.82;;;8.98;;
44110;SDS011;29774;52.664;5.074;2023-06-22T10:00:57;12.65;;;9.90;;
44110;SDS011;29774;52.664;5.074;2023-06-22T10:03:22;13.35;;;10.20;;
44110;SDS011;29774;52.664;5.074;2023-06-22T10:05:48;13.60;;;9.85;;
44110;SDS011;29774;52.664;5.074;2023-06-22T10:08:14;4.53;;;4.07;;
44110;SDS011;29774;52.664;5.074;2023-06-22T10:10:44;10.20;;;8.50;;
44110;SDS011;29774;52.664;5.074;2023-06-22T10:13:10;9.10;;;8.20;;
44110;SDS011;29774;52.664;5.074;2023-06-22T10:15:37;11.30;;;7.47;;
44110;SDS011;29774;52.664;5.074;2023-06-22T10:18:04;10.27;;;7.93;;
44110;SDS011;29774;52.664;5.074;2023-06-22T10:20:30;9.63;;;7.88;;
44110;SDS011;29774;52.664;5.074;2023-06-22T10:22:57;10.90;;;8.65;;
44110;SDS011;29774;52.664;5.074;2023-06-22T10:25:22;11.13;;;9.30;;
44110;SDS011;29774;52.664;5.074;2023-06-22T10:27:48;8.70;;;6.85;;
44110;SDS011;29774;52.664;5.074;2023-06-22T10:30:14;10.45;;;8.32;;
44110;SDS011;29774;52.664;5.074;2023-06-22T10:32:40;13.57;;;9.55;;
44110;SDS011;29774;52.664;5.074;2023-06-22T10:35:08;9.05;;;8.15;;
44110;SDS011;29774;52.664;5.074;2023-06-22T10:37:35;4.35;;;3.90;;
44110;SDS011;29774;52.664;5.074;2023-06-22T10:40:01;8.85;;;4.97;;
44110;SDS011;29774;52.664;5.074;2023-06-22T10:42:29;11.13;;;9.45;;
44110;SDS011;29774;52.664;5.074;2023-06-22T10:44:55;9.00;;;8.07;;
44110;SDS011;29774;52.664;5.074;2023-06-22T10:47:21;12.13;;;10.82;;
44110;SDS011;29774;52.664;5.074;2023-06-22T10:49:46;7.22;;;5.70;;
44110;SDS011;29774;52.664;5.074;2023-06-22T10:52:12;6.65;;;5.63;;
44110;SDS011;29774;52.664;5.074;2023-06-22T10:54:38;13.00;;;11.50;;
44110;SDS011;29774;52.664;5.074;2023-06-22T10:57:03;15.85;;;12.85;;
44110;SDS011;29774;52.664;5.074;2023-06-22T10:59:29;7.20;;;5.88;;
44110;SDS011;29774;52.664;5.074;2023-06-22T11:01:58;12.95;;;9.88;;
44110;SDS011;29774;52.664;5.074;2023-06-22T11:04:24;11.85;;;10.30;;
44110;SDS011;29774;52.664;5.074;2023-06-22T11:06:50;6.05;;;5.20;;
44110;SDS011;29774;52.664;5.074;2023-06-22T11:09:16;7.43;;;5.57;;
44110;SDS011;29774;52.664;5.074;2023-06-22T11:11:51;5.70;;;4.75;;
44110;SDS011;29774;52.664;5.074;2023-06-22T11:14:18;8.18;;;5.75;;
44110;SDS011;29774;52.664;5.074;2023-06-22T11:16:45;13.82;;;10.23;;
44110;SDS011;29774;52.664;5.074;2023-06-22T11:19:12;13.57;;;10.77;;
44110;SDS011;29774;52.664;5.074;2023-06-22T11:21:38;14.93;;;11.57;;
44110;SDS011;29774;52.664;5.074;2023-06-22T11:24:03;9.27;;;8.32;;
44110;SDS011;29774;52.664;5.074;2023-06-22T11:26:29;6.13;;;5.53;;
44110;SDS011;29774;52.664;5.074;2023-06-22T11:28:56;7.57;;;5.28;;
44110;SDS011;29774;52.664;5.074;2023-06-22T11:31:22;11.10;;;10.00;;
44110;SDS011;29774;52.664;5.074;2023-06-22T11:33:50;8.02;;;6.15;;
44110;SDS011;29774;52.664;5.074;2023-06-22T11:36:15;6.68;;;4.60;;
44110;SDS011;29774;52.664;5.074;2023-06-22T11:38:42;7.10;;;5.25;;
44110;SDS011;29774;52.664;5.074;2023-06-22T11:41:08;12.52;;;9.40;;
44110;SDS011;29774;52.664;5.074;2023-06-22T11:43:34;9.55;;;8.65;;
44110;SDS011;29774;52.664;5.074;2023-06-22T11:46:02;13.00;;;10.00;;
44110;SDS011;29774;52.664;5.074;2023-06-22T11:48:29;9.90;;;7.60;;
44110;SDS011;29774;52.664;5.074;2023-06-22T11:50:55;12.60;;;9.77;;
44110;SDS011;29774;52.664;5.074;2023-06-22T11:53:23;5.13;;;4.60;;
44110;SDS011;29774;52.664;5.074;2023-06-22T11:55:50;8.07;;;7.28;;
44110;SDS011;29774;52.664;5.074;2023-06-22T11:58:16;9.07;;;8.25;;
44110;SDS011;29774;52.664;5.074;2023-06-22T12:00:42;7.53;;;6.13;;
44110;SDS011;29774;52.664;5.074;2023-06-22T12:03:08;5.93;;;5.25;;
44110;SDS011;29774;52.664;5.074;2023-06-22T12:05:37;7.22;;;6.18;;
44110;SDS011;29774;52.664;5.074;2023-06-22T12:08:03;5.80;;;4.68;;
44110;SDS011;29774;52.664;5.074;2023-06-22T12:10:29;7.22;;;6.18;;
44110;SDS011;29774;52.664;5.074;2023-06-22T12:12:55;4.38;;;3.78;;
44110;SDS011;29774;52.664;5.074;2023-06-22T12:15:22;6.80;;;5.60;;
44110;SDS011;29774;52.664;5.074;2023-06-22T12:17:48;7.47;;;5.25;;
44110;SDS011;29774;52.664;5.074;2023-06-22T12:20:13;7.90;;;5.03;;
44110;SDS011;29774;52.664;5.074;2023-06-22T12:22:40;3.47;;;3.08;;
44110;SDS011;29774;52.664;5.074;2023-06-22T12:25:07;4.50;;;3.25;;
44110;SDS011;29774;52.664;5.074;2023-06-22T12:27:33;5.05;;;4.55;;
44110;SDS011;29774;52.664;5.074;2023-06-22T12:29:59;4.68;;;3.05;;
44110;SDS011;29774;52.664;5.074;2023-06-22T12:32:25;3.65;;;3.17;;
44110;SDS011;29774;52.664;5.074;2023-06-22T12:34:51;4.60;;;3.47;;
44110;SDS011;29774;52.664;5.074;2023-06-22T12:37:17;3.75;;;3.38;;
44110;SDS011;29774;52.664;5.074;2023-06-22T12:39:43;4.43;;;3.92;;
44110;SDS011;29774;52.664;5.074;2023-06-22T12:42:08;5.70;;;4.30;;
44110;SDS011;29774;52.664;5.074;2023-06-22T12:44:38;2.50;;;1.90;;
44110;SDS011;29774;52.664;5.074;2023-06-22T12:47:06;5.25;;;3.60;;
44110;SDS011;29774;52.664;5.074;2023-06-22T12:49:33;6.93;;;5.88;;
44110;SDS011;29774;52.664;5.074;2023-06-22T12:52:00;4.38;;;2.97;;
44110;SDS011;29774;52.664;5.074;2023-06-22T12:54:25;5.55;;;3.55;;
44110;SDS011;29774;52.664;5.074;2023-06-22T12:56:51;4.78;;;3.58;;
44110;SDS011;29774;52.664;5.074;2023-06-22T12:59:17;4.82;;;3.45;;
44110;SDS011;29774;52.664;5.074;2023-06-22T13:01:44;5.00;;;3.70;;
44110;SDS011;29774;52.664;5.074;2023-06-22T13:04:10;4.70;;;4.20;;
44110;SDS011;29774;52.664;5.074;2023-06-22T13:06:39;6.60;;;4.03;;
44110;SDS011;29774;52.664;5.074;2023-06-22T13:09:05;4.70;;;4.30;;
44110;SDS011;29774;52.664;5.074;2023-06-22T13:11:31;5.10;;;3.55;;
44110;SDS011;29774;52.664;5.074;2023-06-22T13:13:57;3.85;;;3.38;;
44110;SDS011;29774;52.664;5.074;2023-06-22T13:16:22;3.55;;;2.95;;
44110;SDS011;29774;52.664;5.074;2023-06-22T13:18:48;4.75;;;2.83;;
44110;SDS011;29774;52.664;5.074;2023-06-22T13:21:14;2.47;;;2.22;;
44110;SDS011;29774;52.664;5.074;2023-06-22T13:23:40;3.00;;;1.77;;
44110;SDS011;29774;52.664;5.074;2023-06-22T13:26:07;5.07;;;3.85;;
44110;SDS011;29774;52.664;5.074;2023-06-22T13:28:34;3.55;;;2.33;;
44110;SDS011;29774;52.664;5.074;2023-06-22T13:30:59;4.80;;;3.35;;
44110;SDS011;29774;52.664;5.074;2023-06-22T13:33:25;4.03;;;3.63;;
44110;SDS011;29774;52.664;5.074;2023-06-22T13:35:51;3.38;;;2.30;;
44110;SDS011;29774;52.664;5.074;2023-06-22T13:38:17;3.85;;;3.03;;
44110;SDS011;29774;52.664;5.074;2023-06-22T13:40:42;5.07;;;4.10;;
44110;SDS011;29774;52.664;5.074;2023-06-22T13:43:08;6.75;;;3.80;;
44110;SDS011;29774;52.664;5.074;2023-06-22T13:45:35;4.30;;;3.15;;
44110;SDS011;29774;52.664;5.074;2023-06-22T13:48:01;4.38;;;3.95;;
44110;SDS011;29774;52.664;5.074;2023-06-22T13:50:27;3.53;;;3.22;;
44110;SDS011;29774;52.664;5.074;2023-06-22T13:52:54;4.15;;;3.50;;
44110;SDS011;29774;52.664;5.074;2023-06-22T13:55:19;4.18;;;3.60;;
44110;SDS011;29774;52.664;5.074;2023-06-22T13:57:46;5.15;;;3.60;;
44110;SDS011;29774;52.664;5.074;2023-06-22T14:00:11;5.32;;;2.88;;
44110;SDS011;29774;52.664;5.074;2023-06-22T14:02:38;2.30;;;2.08;;
44110;SDS011;29774;52.664;5.074;2023-06-22T14:05:05;2.95;;;2.58;;
44110;SDS011;29774;52.664;5.074;2023-06-22T14:07:32;4.55;;;3.67;;
44110;SDS011;29774;52.664;5.074;2023-06-22T14:09:58;5.55;;;3.00;;
44110;SDS011;29774;52.664;5.074;2023-06-22T14:12:24;3.78;;;2.30;;
44110;SDS011;29774;52.664;5.074;2023-06-22T14:14:50;3.20;;;2.90;;
44110;SDS011;29774;52.664;5.074;2023-06-22T14:17:15;4.18;;;2.13;;
44110;SDS011;29774;52.664;5.074;2023-06-22T14:19:41;2.88;;;2.20;;
44110;SDS011;29774;52.664;5.074;2023-06-22T14:22:07;3.58;;;2.30;;
44110;SDS011;29774;52.664;5.074;2023-06-22T14:24:33;5.47;;;4.10;;
44110;SDS011;29774;52.664;5.074;2023-06-22T14:26:59;4.63;;;2.72;;
44110;SDS011;29774;52.664;5.074;2023-06-22T14:29:27;3.15;;;2.40;;
44110;SDS011;29774;52.664;5.074;2023-06-22T14:31:53;3.05;;;2.40;;
44110;SDS011;29774;52.664;5.074;2023-06-22T14:34:18;2.78;;;2.13;;
44110;SDS011;29774;52.664;5.074;2023-06-22T14:36:44;4.10;;;2.88;;
44110;SDS011;29774;52.664;5.074;2023-06-22T14:39:09;2.70;;;2.35;;